sensor_id;sensor_type;location;lat;lon;timestamp;temperature;humidity
21625;DHT22;10974;51.034;3.744;2022-11-20T04:16:43;5.20;99.90
21625;DHT22;10974;51.034;3.744;2022-11-20T04:19:12;5.40;99.90
21625;DHT22;10974;51.034;3.744;2022-11-20T04:21:37;5.40;99.90
21625;DHT22;10974;51.034;3.744;2022-11-20T04:24:03;5.40;99.90
21625;DHT22;10974;51.034;3.744;2022-11-20T04:26:30;5.60;99.90
21625;DHT22;10974;51.034;3.744;2022-11-20T04:28:56;5.60;99.90
21625;DHT22;10974;51.034;3.744;2022-11-20T04:31:25;5.70;99.90
21625;DHT22;10974;51.034;3.744;2022-11-20T04:33:51;5.60;99.90
21625;DHT22;10974;51.034;3.744;2022-11-20T04:36:19;5.60;99.90
21625;DHT22;10974;51.034;3.744;2022-11-20T04:38:45;5.60;99.90
21625;DHT22;10974;51.034;3.744;2022-11-20T04:41:20;5.60;99.90
21625;DHT22;10974;51.034;3.744;2022-11-20T04:43:47;5.60;99.90
21625;DHT22;10974;51.034;3.744;2022-11-20T04:46:19;5.70;99.90
21625;DHT22;10974;51.034;3.744;2022-11-20T04:48:46;5.60;99.90
21625;DHT22;10974;51.034;3.744;2022-11-20T04:51:11;5.80;99.90
21625;DHT22;10974;51.034;3.744;2022-11-20T04:53:38;5.80;99.90
21625;DHT22;10974;51.034;3.744;2022-11-20T04:56:06;5.90;99.90
21625;DHT22;10974;51.034;3.744;2022-11-20T04:58:33;5.70;99.90
21625;DHT22;10974;51.034;3.744;2022-11-20T05:01:04;5.70;99.90
21625;DHT22;10974;51.034;3.744;2022-11-20T05:03:30;5.70;99.90
21625;DHT22;10974;51.034;3.744;2022-11-20T05:05:55;5.70;99.90
21625;DHT22;10974;51.034;3.744;2022-11-20T05:08:21;5.70;99.90
21625;DHT22;10974;51.034;3.744;2022-11-20T05:10:47;5.80;99.90
21625;DHT22;10974;51.034;3.744;2022-11-20T05:13:12;5.70;99.90
21625;DHT22;10974;51.034;3.744;2022-11-20T05:15:38;5.80;99.90
21625;DHT22;10974;51.034;3.744;2022-11-20T05:18:04;5.40;99.90
21625;DHT22;10974;51.034;3.744;2022-11-20T05:20:29;5.60;99.90
21625;DHT22;10974;51.034;3.744;2022-11-20T05:22:58;5.80;99.90
21625;DHT22;10974;51.034;3.744;2022-11-20T05:25:23;5.70;99.90
21625;DHT22;10974;51.034;3.744;2022-11-20T05:27:49;5.60;99.90
21625;DHT22;10974;51.034;3.744;2022-11-20T05:30:15;5.70;99.90
21625;DHT22;10974;51.034;3.744;2022-11-20T05:32:40;5.70;99.90
21625;DHT22;10974;51.034;3.744;2022-11-20T05:35:06;5.80;99.90
21625;DHT22;10974;51.034;3.744;2022-11-20T05:37:32;5.70;99.90
21625;DHT22;10974;51.034;3.744;2022-11-20T05:39:58;5.80;99.90
21625;DHT22;10974;51.034;3.744;2022-11-20T05:42:24;5.80;99.90
21625;DHT22;10974;51.034;3.744;2022-11-20T05:44:59;5.80;99.90
21625;DHT22;10974;51.034;3.744;2022-11-20T05:47:25;6.00;99.90
21625;DHT22;10974;51.034;3.744;2022-11-20T05:49:51;6.00;99.90
21625;DHT22;10974;51.034;3.744;2022-11-20T05:52:17;5.90;99.90
21625;DHT22;10974;51.034;3.744;2022-11-20T05:54:42;5.80;99.90
21625;DHT22;10974;51.034;3.744;2022-11-20T05:57:08;5.80;99.90
21625;DHT22;10974;51.034;3.744;2022-11-20T05:59:34;5.80;99.90
21625;DHT22;10974;51.034;3.744;2022-11-20T06:01:59;5.80;99.90
21625;DHT22;10974;51.034;3.744;2022-11-20T06:04:25;5.70;99.90
21625;DHT22;10974;51.034;3.744;2022-11-20T06:06:51;5.80;99.90
21625;DHT22;10974;51.034;3.744;2022-11-20T06:09:16;5.90;99.90
21625;DHT22;10974;51.034;3.744;2022-11-20T06:11:42;5.80;99.90
21625;DHT22;10974;51.034;3.744;2022-11-20T06:14:07;5.80;99.90
21625;DHT22;10974;51.034;3.744;2022-11-20T06:16:33;5.90;99.90
21625;DHT22;10974;51.034;3.744;2022-11-20T06:18:58;5.90;99.90
21625;DHT22;10974;51.034;3.744;2022-11-20T06:21:24;5.90;99.90
21625;DHT22;10974;51.034;3.744;2022-11-20T06:23:51;5.70;99.90
21625;DHT22;10974;51.034;3.744;2022-11-20T06:26:22;5.90;99.90
21625;DHT22;10974;51.034;3.744;2022-11-20T06:28:49;6.00;99.90
21625;DHT22;10974;51.034;3.744;2022-11-20T06:31:16;6.00;99.90
21625;DHT22;10974;51.034;3.744;2022-11-20T06:33:43;6.00;99.90
21625;DHT22;10974;51.034;3.744;2022-11-20T06:36:10;5.90;99.90
21625;DHT22;10974;51.034;3.744;2022-11-20T06:38:36;6.00;99.90
21625;DHT22;10974;51.034;3.744;2022-11-20T06:41:03;6.20;99.90
21625;DHT22;10974;51.034;3.744;2022-11-20T06:43:29;6.00;99.90
21625;DHT22;10974;51.034;3.744;2022-11-20T06:45:56;6.10;99.90
21625;DHT22;10974;51.034;3.744;2022-11-20T06:48:23;6.10;99.90
21625;DHT22;10974;51.034;3.744;2022-11-20T06:50:49;6.10;99.90
21625;DHT22;10974;51.034;3.744;2022-11-20T06:53:15;6.30;99.90
21625;DHT22;10974;51.034;3.744;2022-11-20T06:55:44;6.20;99.90
21625;DHT22;10974;51.034;3.744;2022-11-20T06:58:12;6.10;99.90
21625;DHT22;10974;51.034;3.744;2022-11-20T07:00:37;6.20;99.90
21625;DHT22;10974;51.034;3.744;2022-11-20T07:03:07;6.10;99.90
21625;DHT22;10974;51.034;3.744;2022-11-20T07:05:34;6.20;99.90
21625;DHT22;10974;51.034;3.744;2022-11-20T07:08:01;6.20;99.90
21625;DHT22;10974;51.034;3.744;2022-11-20T07:10:27;6.10;99.90
21625;DHT22;10974;51.034;3.744;2022-11-20T07:12:53;6.30;99.90
21625;DHT22;10974;51.034;3.744;2022-11-20T07:15:20;6.30;99.90
21625;DHT22;10974;51.034;3.744;2022-11-20T07:17:46;6.20;99.90
21625;DHT22;10974;51.034;3.744;2022-11-20T07:20:13;6.20;99.90
21625;DHT22;10974;51.034;3.744;2022-11-20T07:22:39;6.30;99.90
21625;DHT22;10974;51.034;3.744;2022-11-20T07:25:05;6.40;99.90
21625;DHT22;10974;51.034;3.744;2022-11-20T07:27:31;6.20;99.90
21625;DHT22;10974;51.034;3.744;2022-11-20T07:29:57;6.20;99.90
21625;DHT22;10974;51.034;3.744;2022-11-20T07:32:23;6.40;99.90
21625;DHT22;10974;51.034;3.744;2022-11-20T07:34:49;6.40;99.90
21625;DHT22;10974;51.034;3.744;2022-11-20T07:37:15;6.30;99.90
21625;DHT22;10974;51.034;3.744;2022-11-20T07:39:41;6.50;99.90
21625;DHT22;10974;51.034;3.744;2022-11-20T07:42:07;6.40;99.90
21625;DHT22;10974;51.034;3.744;2022-11-20T07:44:33;6.30;99.90
21625;DHT22;10974;51.034;3.744;2022-11-20T07:46:59;6.50;99.90
21625;DHT22;10974;51.034;3.744;2022-11-20T07:49:25;6.30;99.90
21625;DHT22;10974;51.034;3.744;2022-11-20T07:51:51;6.40;99.90
21625;DHT22;10974;51.034;3.744;2022-11-20T07:54:19;6.40;99.90
21625;DHT22;10974;51.034;3.744;2022-11-20T07:56:45;6.60;99.90
21625;DHT22;10974;51.034;3.744;2022-11-20T07:59:10;6.40;99.90
21625;DHT22;10974;51.034;3.744;2022-11-20T08:01:38;6.50;99.90
21625;DHT22;10974;51.034;3.744;2022-11-20T08:04:03;6.50;99.90
21625;DHT22;10974;51.034;3.744;2022-11-20T08:06:30;6.50;99.90
21625;DHT22;10974;51.034;3.744;2022-11-20T08:08:55;6.50;99.90
21625;DHT22;10974;51.034;3.744;2022-11-20T08:11:21;6.50;99.90
21625;DHT22;10974;51.034;3.744;2022-11-20T08:14:05;6.60;99.90
21625;DHT22;10974;51.034;3.744;2022-11-20T08:16:43;6.70;99.90
21625;DHT22;10974;51.034;3.744;2022-11-20T08:19:10;6.70;99.90
21625;DHT22;10974;51.034;3.744;2022-11-20T08:21:36;6.60;99.90
21625;DHT22;10974;51.034;3.744;2022-11-20T08:24:02;6.60;99.90
21625;DHT22;10974;51.034;3.744;2022-11-20T08:26:28;6.70;99.90
21625;DHT22;10974;51.034;3.744;2022-11-20T08:28:57;6.60;99.90
21625;DHT22;10974;51.034;3.744;2022-11-20T08:31:25;6.70;99.90
21625;DHT22;10974;51.034;3.744;2022-11-20T08:33:51;6.60;99.90
21625;DHT22;10974;51.034;3.744;2022-11-20T08:36:18;6.60;99.90
21625;DHT22;10974;51.034;3.744;2022-11-20T08:38:48;6.60;99.90
21625;DHT22;10974;51.034;3.744;2022-11-20T08:41:14;6.80;99.90
21625;DHT22;10974;51.034;3.744;2022-11-20T08:43:49;6.60;99.90
21625;DHT22;10974;51.034;3.744;2022-11-20T08:46:16;6.60;99.90
21625;DHT22;10974;51.034;3.744;2022-11-20T08:48:42;6.60;99.90
21625;DHT22;10974;51.034;3.744;2022-11-20T08:51:08;6.80;99.90
21625;DHT22;10974;51.034;3.744;2022-11-20T08:53:34;6.70;99.90
21625;DHT22;10974;51.034;3.744;2022-11-20T08:56:00;6.80;99.90
21625;DHT22;10974;51.034;3.744;2022-11-20T08:58:26;6.80;99.90
21625;DHT22;10974;51.034;3.744;2022-11-20T09:00:52;6.90;99.90
21625;DHT22;10974;51.034;3.744;2022-11-20T09:03:17;6.70;99.90
21625;DHT22;10974;51.034;3.744;2022-11-20T09:05:43;6.80;99.90
21625;DHT22;10974;51.034;3.744;2022-11-20T09:08:09;6.90;99.90
21625;DHT22;10974;51.034;3.744;2022-11-20T09:10:34;6.90;99.90
21625;DHT22;10974;51.034;3.744;2022-11-20T09:13:00;6.80;99.90
21625;DHT22;10974;51.034;3.744;2022-11-20T09:15:27;6.90;99.90
21625;DHT22;10974;51.034;3.744;2022-11-20T09:17:54;6.90;99.90
21625;DHT22;10974;51.034;3.744;2022-11-20T09:20:20;6.90;99.90
21625;DHT22;10974;51.034;3.744;2022-11-20T09:22:46;7.00;99.90
21625;DHT22;10974;51.034;3.744;2022-11-20T09:25:12;7.00;99.90
21625;DHT22;10974;51.034;3.744;2022-11-20T09:27:37;7.00;99.90
21625;DHT22;10974;51.034;3.744;2022-11-20T09:30:04;7.10;99.90
21625;DHT22;10974;51.034;3.744;2022-11-20T09:32:30;7.20;99.90
21625;DHT22;10974;51.034;3.744;2022-11-20T09:34:55;7.20;99.90
21625;DHT22;10974;51.034;3.744;2022-11-20T09:37:21;7.10;99.90
21625;DHT22;10974;51.034;3.744;2022-11-20T09:39:46;7.20;99.90
21625;DHT22;10974;51.034;3.744;2022-11-20T09:50:54;7.30;99.90
21625;DHT22;10974;51.034;3.744;2022-11-20T09:56:01;7.50;99.90
21625;DHT22;10974;51.034;3.744;2022-11-20T09:58:35;7.40;99.90
21625;DHT22;10974;51.034;3.744;2022-11-20T10:01:28;7.60;99.90
21625;DHT22;10974;51.034;3.744;2022-11-20T10:06:33;7.70;99.90
21625;DHT22;10974;51.034;3.744;2022-11-20T10:11:51;7.80;99.90
21625;DHT22;10974;51.034;3.744;2022-11-20T10:14:38;7.80;99.90
21625;DHT22;10974;51.034;3.744;2022-11-20T10:25:23;8.20;99.90
21625;DHT22;10974;51.034;3.744;2022-11-20T10:31:00;8.20;99.90
21625;DHT22;10974;51.034;3.744;2022-11-20T10:33:29;8.30;99.90
21625;DHT22;10974;51.034;3.744;2022-11-20T10:36:30;8.30;99.90
21625;DHT22;10974;51.034;3.744;2022-11-20T10:39:03;8.30;99.90
21625;DHT22;10974;51.034;3.744;2022-11-20T10:41:40;8.40;99.90
21625;DHT22;10974;51.034;3.744;2022-11-20T10:44:14;8.50;99.90
21625;DHT22;10974;51.034;3.744;2022-11-20T10:47:00;8.60;99.90
21625;DHT22;10974;51.034;3.744;2022-11-20T10:49:26;8.70;99.90
21625;DHT22;10974;51.034;3.744;2022-11-20T10:52:23;8.80;99.90
21625;DHT22;10974;51.034;3.744;2022-11-20T11:00:10;8.90;99.90
21625;DHT22;10974;51.034;3.744;2022-11-20T11:02:49;8.90;99.90
21625;DHT22;10974;51.034;3.744;2022-11-20T11:07:59;8.90;99.90
21625;DHT22;10974;51.034;3.744;2022-11-20T11:10:39;9.00;99.90
21625;DHT22;10974;51.034;3.744;2022-11-20T11:13:25;9.00;99.90
21625;DHT22;10974;51.034;3.744;2022-11-20T11:15:52;9.00;99.90
21625;DHT22;10974;51.034;3.744;2022-11-20T11:20:53;9.00;99.90
21625;DHT22;10974;51.034;3.744;2022-11-20T11:25:59;9.00;99.90
21625;DHT22;10974;51.034;3.744;2022-11-20T11:28:26;9.00;99.90
21625;DHT22;10974;51.034;3.744;2022-11-20T11:30:53;9.00;99.90
21625;DHT22;10974;51.034;3.744;2022-11-20T11:33:28;9.00;99.90
21625;DHT22;10974;51.034;3.744;2022-11-20T11:38:36;9.10;99.90
21625;DHT22;10974;51.034;3.744;2022-11-20T11:41:05;9.10;99.90
21625;DHT22;10974;51.034;3.744;2022-11-20T11:43:34;8.90;99.90
21625;DHT22;10974;51.034;3.744;2022-11-20T11:46:30;8.90;99.90
21625;DHT22;10974;51.034;3.744;2022-11-20T11:52:02;8.60;99.90
21625;DHT22;10974;51.034;3.744;2022-11-20T11:54:37;8.60;99.90
21625;DHT22;10974;51.034;3.744;2022-11-20T12:00:10;8.30;99.90
21625;DHT22;10974;51.034;3.744;2022-11-20T12:05:27;8.20;99.90
21625;DHT22;10974;51.034;3.744;2022-11-20T12:08:11;8.20;99.90
21625;DHT22;10974;51.034;3.744;2022-11-20T12:13:20;8.10;99.90
21625;DHT22;10974;51.034;3.744;2022-11-20T12:15:47;8.10;99.90
21625;DHT22;10974;51.034;3.744;2022-11-20T12:18:19;8.10;99.90
21625;DHT22;10974;51.034;3.744;2022-11-20T12:21:04;8.10;99.90
21625;DHT22;10974;51.034;3.744;2022-11-20T12:26:07;8.10;99.90
21625;DHT22;10974;51.034;3.744;2022-11-20T12:28:57;8.10;99.90
21625;DHT22;10974;51.034;3.744;2022-11-20T12:31:47;8.00;99.90
21625;DHT22;10974;51.034;3.744;2022-11-20T12:37:26;8.00;99.90
21625;DHT22;10974;51.034;3.744;2022-11-20T12:39:58;8.00;99.90
21625;DHT22;10974;51.034;3.744;2022-11-20T12:45:50;8.00;99.90
21625;DHT22;10974;51.034;3.744;2022-11-20T12:48:51;8.00;99.90
21625;DHT22;10974;51.034;3.744;2022-11-20T13:00:14;8.00;99.90
21625;DHT22;10974;51.034;3.744;2022-11-20T13:05:55;8.00;99.90
21625;DHT22;10974;51.034;3.744;2022-11-20T13:08:47;8.00;99.90
21625;DHT22;10974;51.034;3.744;2022-11-20T13:11:37;8.00;99.90
21625;DHT22;10974;51.034;3.744;2022-11-20T13:17:00;8.00;99.90
21625;DHT22;10974;51.034;3.744;2022-11-20T13:19:30;8.00;99.90
21625;DHT22;10974;51.034;3.744;2022-11-20T13:21:55;8.00;99.90
21625;DHT22;10974;51.034;3.744;2022-11-20T13:29:28;8.00;99.90
21625;DHT22;10974;51.034;3.744;2022-11-20T13:32:15;8.10;99.90
21625;DHT22;10974;51.034;3.744;2022-11-20T13:34:59;8.10;99.90
21625;DHT22;10974;51.034;3.744;2022-11-20T13:42:45;8.20;99.90
21625;DHT22;10974;51.034;3.744;2022-11-20T13:45:25;8.20;99.90
21625;DHT22;10974;51.034;3.744;2022-11-20T13:47:53;8.30;99.90
21625;DHT22;10974;51.034;3.744;2022-11-20T13:50:20;8.30;99.90
21625;DHT22;10974;51.034;3.744;2022-11-20T13:52:57;8.30;99.90
21625;DHT22;10974;51.034;3.744;2022-11-20T13:56:05;8.30;99.90
21625;DHT22;10974;51.034;3.744;2022-11-20T13:58:36;8.40;99.90
21625;DHT22;10974;51.034;3.744;2022-11-20T14:01:25;8.40;99.90
21625;DHT22;10974;51.034;3.744;2022-11-20T14:03:52;8.40;99.90
21625;DHT22;10974;51.034;3.744;2022-11-20T14:06:26;8.50;99.90
21625;DHT22;10974;51.034;3.744;2022-11-20T14:08:53;8.50;99.90
21625;DHT22;10974;51.034;3.744;2022-11-20T14:11:21;8.60;99.90
21625;DHT22;10974;51.034;3.744;2022-11-20T14:16:28;8.60;99.90
21625;DHT22;10974;51.034;3.744;2022-11-20T14:18:55;8.70;99.90
21625;DHT22;10974;51.034;3.744;2022-11-20T14:21:29;8.70;99.90
21625;DHT22;10974;51.034;3.744;2022-11-20T14:24:06;8.80;99.90
21625;DHT22;10974;51.034;3.744;2022-11-20T14:26:32;8.90;99.90
21625;DHT22;10974;51.034;3.744;2022-11-20T14:28:58;8.90;99.90
21625;DHT22;10974;51.034;3.744;2022-11-20T14:31:26;8.90;99.90
21625;DHT22;10974;51.034;3.744;2022-11-20T14:33:55;9.00;99.90
21625;DHT22;10974;51.034;3.744;2022-11-20T14:36:24;9.10;99.90
21625;DHT22;10974;51.034;3.744;2022-11-20T14:38:51;9.20;99.90
21625;DHT22;10974;51.034;3.744;2022-11-20T14:41:20;9.20;99.90
21625;DHT22;10974;51.034;3.744;2022-11-20T14:43:58;9.30;99.90
21625;DHT22;10974;51.034;3.744;2022-11-20T14:46:24;9.40;99.90
21625;DHT22;10974;51.034;3.744;2022-11-20T14:49:01;9.50;99.90
21625;DHT22;10974;51.034;3.744;2022-11-20T14:51:37;9.60;99.90
21625;DHT22;10974;51.034;3.744;2022-11-20T14:54:19;9.60;99.90
21625;DHT22;10974;51.034;3.744;2022-11-20T14:56:58;9.60;99.90
21625;DHT22;10974;51.034;3.744;2022-11-20T14:59:26;9.70;99.90
21625;DHT22;10974;51.034;3.744;2022-11-20T15:02:01;9.70;99.90
21625;DHT22;10974;51.034;3.744;2022-11-20T15:04:27;9.70;99.90
21625;DHT22;10974;51.034;3.744;2022-11-20T15:06:57;9.70;99.90
21625;DHT22;10974;51.034;3.744;2022-11-20T15:09:24;9.70;99.90
21625;DHT22;10974;51.034;3.744;2022-11-20T15:11:58;9.70;99.90
21625;DHT22;10974;51.034;3.744;2022-11-20T15:14:25;9.70;99.90
21625;DHT22;10974;51.034;3.744;2022-11-20T15:16:52;9.80;99.90
21625;DHT22;10974;51.034;3.744;2022-11-20T15:19:22;9.80;99.90
21625;DHT22;10974;51.034;3.744;2022-11-20T15:21:49;9.90;99.90
21625;DHT22;10974;51.034;3.744;2022-11-20T15:24:15;9.90;99.90
21625;DHT22;10974;51.034;3.744;2022-11-20T15:26:41;9.90;99.90
21625;DHT22;10974;51.034;3.744;2022-11-20T15:29:12;9.80;99.90
21625;DHT22;10974;51.034;3.744;2022-11-20T15:31:39;9.80;99.90
21625;DHT22;10974;51.034;3.744;2022-11-20T15:34:11;9.80;99.90
21625;DHT22;10974;51.034;3.744;2022-11-20T15:36:39;9.70;99.90
21625;DHT22;10974;51.034;3.744;2022-11-20T15:39:05;9.80;99.90
21625;DHT22;10974;51.034;3.744;2022-11-20T15:41:34;9.80;99.90
21625;DHT22;10974;51.034;3.744;2022-11-20T15:44:00;9.70;99.90
21625;DHT22;10974;51.034;3.744;2022-11-20T15:46:28;9.70;99.90
21625;DHT22;10974;51.034;3.744;2022-11-20T15:48:55;9.70;99.90
21625;DHT22;10974;51.034;3.744;2022-11-20T15:51:46;9.70;99.90
21625;DHT22;10974;51.034;3.744;2022-11-20T15:54:18;9.60;99.90
21625;DHT22;10974;51.034;3.744;2022-11-20T15:56:48;9.60;99.90
21625;DHT22;10974;51.034;3.744;2022-11-20T15:59:14;9.60;99.90
21625;DHT22;10974;51.034;3.744;2022-11-20T16:01:41;9.70;99.90
21625;DHT22;10974;51.034;3.744;2022-11-20T16:04:14;9.60;99.90
21625;DHT22;10974;51.034;3.744;2022-11-20T16:06:40;9.60;99.90
21625;DHT22;10974;51.034;3.744;2022-11-20T16:09:07;9.60;99.90
21625;DHT22;10974;51.034;3.744;2022-11-20T16:11:33;9.70;99.90
21625;DHT22;10974;51.034;3.744;2022-11-20T16:14:00;9.60;99.90
21625;DHT22;10974;51.034;3.744;2022-11-20T16:16:45;9.70;99.90
21625;DHT22;10974;51.034;3.744;2022-11-20T16:19:11;9.60;99.90
21625;DHT22;10974;51.034;3.744;2022-11-20T16:21:37;9.50;99.90
21625;DHT22;10974;51.034;3.744;2022-11-20T16:24:06;9.40;99.90
21625;DHT22;10974;51.034;3.744;2022-11-20T16:26:32;9.50;99.90
21625;DHT22;10974;51.034;3.744;2022-11-20T16:28:59;9.50;99.90
21625;DHT22;10974;51.034;3.744;2022-11-20T16:31:25;9.40;99.90
21625;DHT22;10974;51.034;3.744;2022-11-20T16:33:52;9.30;99.90
21625;DHT22;10974;51.034;3.744;2022-11-20T16:36:20;9.40;99.90
21625;DHT22;10974;51.034;3.744;2022-11-20T16:38:46;9.40;99.90
21625;DHT22;10974;51.034;3.744;2022-11-20T16:41:12;9.40;99.90
21625;DHT22;10974;51.034;3.744;2022-11-20T16:43:54;9.30;99.90
21625;DHT22;10974;51.034;3.744;2022-11-20T16:46:22;9.30;99.90
21625;DHT22;10974;51.034;3.744;2022-11-20T16:48:56;9.20;99.90
21625;DHT22;10974;51.034;3.744;2022-11-20T16:51:23;9.20;99.90
21625;DHT22;10974;51.034;3.744;2022-11-20T16:53:49;9.20;99.90
21625;DHT22;10974;51.034;3.744;2022-11-20T16:56:17;9.20;99.90
21625;DHT22;10974;51.034;3.744;2022-11-20T16:58:44;9.30;99.90
21625;DHT22;10974;51.034;3.744;2022-11-20T17:01:11;9.30;99.90
21625;DHT22;10974;51.034;3.744;2022-11-20T17:03:39;9.30;99.90
21625;DHT22;10974;51.034;3.744;2022-11-20T17:06:19;9.30;99.90
21625;DHT22;10974;51.034;3.744;2022-11-20T17:08:46;9.20;99.90
21625;DHT22;10974;51.034;3.744;2022-11-20T17:11:17;9.20;99.90
21625;DHT22;10974;51.034;3.744;2022-11-20T17:13:43;9.20;99.90
21625;DHT22;10974;51.034;3.744;2022-11-20T17:16:17;9.20;99.90
21625;DHT22;10974;51.034;3.744;2022-11-20T17:18:44;9.20;99.90
21625;DHT22;10974;51.034;3.744;2022-11-20T17:21:10;9.00;99.90
21625;DHT22;10974;51.034;3.744;2022-11-20T17:23:38;9.10;99.90
21625;DHT22;10974;51.034;3.744;2022-11-20T17:26:16;9.10;99.90
21625;DHT22;10974;51.034;3.744;2022-11-20T17:28:43;9.20;99.90
21625;DHT22;10974;51.034;3.744;2022-11-20T17:31:15;9.20;99.90
21625;DHT22;10974;51.034;3.744;2022-11-20T17:33:43;9.20;99.90
21625;DHT22;10974;51.034;3.744;2022-11-20T17:36:10;9.20;99.90
21625;DHT22;10974;51.034;3.744;2022-11-20T17:38:37;9.10;99.90
21625;DHT22;10974;51.034;3.744;2022-11-20T17:41:09;9.10;99.90
21625;DHT22;10974;51.034;3.744;2022-11-20T17:43:35;9.00;99.90
21625;DHT22;10974;51.034;3.744;2022-11-20T17:46:05;9.00;99.90
21625;DHT22;10974;51.034;3.744;2022-11-20T17:48:32;8.90;99.90
21625;DHT22;10974;51.034;3.744;2022-11-20T17:51:02;9.00;99.90
21625;DHT22;10974;51.034;3.744;2022-11-20T17:53:31;9.00;99.90
21625;DHT22;10974;51.034;3.744;2022-11-20T17:55:58;8.90;99.90
21625;DHT22;10974;51.034;3.744;2022-11-20T17:58:42;8.90;99.90
21625;DHT22;10974;51.034;3.744;2022-11-20T18:01:08;9.00;99.90
21625;DHT22;10974;51.034;3.744;2022-11-20T18:03:34;8.90;99.90
21625;DHT22;10974;51.034;3.744;2022-11-20T18:06:15;8.90;99.90
21625;DHT22;10974;51.034;3.744;2022-11-20T18:08:41;8.80;99.90
21625;DHT22;10974;51.034;3.744;2022-11-20T18:13:40;8.90;99.90
21625;DHT22;10974;51.034;3.744;2022-11-20T18:16:25;9.00;99.90
21625;DHT22;10974;51.034;3.744;2022-11-20T18:18:55;8.90;99.90
21625;DHT22;10974;51.034;3.744;2022-11-20T18:21:22;8.80;99.90
21625;DHT22;10974;51.034;3.744;2022-11-20T18:23:48;8.80;99.90
21625;DHT22;10974;51.034;3.744;2022-11-20T18:26:14;8.80;99.90
21625;DHT22;10974;51.034;3.744;2022-11-20T18:28:40;8.70;99.90
21625;DHT22;10974;51.034;3.744;2022-11-20T18:31:06;8.70;99.90
21625;DHT22;10974;51.034;3.744;2022-11-20T18:33:33;8.70;99.90
21625;DHT22;10974;51.034;3.744;2022-11-20T18:36:21;8.60;99.90
21625;DHT22;10974;51.034;3.744;2022-11-20T18:38:49;8.60;99.90
21625;DHT22;10974;51.034;3.744;2022-11-20T18:41:18;8.50;99.90
21625;DHT22;10974;51.034;3.744;2022-11-20T18:44:05;8.40;99.90
21625;DHT22;10974;51.034;3.744;2022-11-20T18:46:50;8.40;99.90
21625;DHT22;10974;51.034;3.744;2022-11-20T18:49:16;8.40;99.90
21625;DHT22;10974;51.034;3.744;2022-11-20T18:51:42;8.50;99.90
21625;DHT22;10974;51.034;3.744;2022-11-20T18:54:11;8.40;99.90
21625;DHT22;10974;51.034;3.744;2022-11-20T18:56:37;8.40;99.90
21625;DHT22;10974;51.034;3.744;2022-11-20T18:59:04;8.40;99.90
21625;DHT22;10974;51.034;3.744;2022-11-20T19:01:30;8.40;99.90
21625;DHT22;10974;51.034;3.744;2022-11-20T19:03:56;8.50;99.90
21625;DHT22;10974;51.034;3.744;2022-11-20T19:06:22;8.40;99.90
21625;DHT22;10974;51.034;3.744;2022-11-20T19:08:48;8.50;99.90
21625;DHT22;10974;51.034;3.744;2022-11-20T19:11:14;8.40;99.90
21625;DHT22;10974;51.034;3.744;2022-11-20T19:13:39;8.30;99.90
21625;DHT22;10974;51.034;3.744;2022-11-20T19:16:13;8.40;99.90
21625;DHT22;10974;51.034;3.744;2022-11-20T19:18:40;8.40;99.90
21625;DHT22;10974;51.034;3.744;2022-11-20T19:21:11;8.40;99.90
21625;DHT22;10974;51.034;3.744;2022-11-20T19:23:37;8.40;99.90
21625;DHT22;10974;51.034;3.744;2022-11-20T19:26:04;8.40;99.90
21625;DHT22;10974;51.034;3.744;2022-11-20T19:28:30;8.40;99.90
21625;DHT22;10974;51.034;3.744;2022-11-20T19:31:02;8.40;99.90
21625;DHT22;10974;51.034;3.744;2022-11-20T19:33:28;8.40;99.90
21625;DHT22;10974;51.034;3.744;2022-11-20T19:35:54;8.50;99.90
21625;DHT22;10974;51.034;3.744;2022-11-20T19:38:19;8.50;99.90
21625;DHT22;10974;51.034;3.744;2022-11-20T19:40:46;8.30;99.90
21625;DHT22;10974;51.034;3.744;2022-11-20T19:43:11;8.40;99.90
21625;DHT22;10974;51.034;3.744;2022-11-20T19:45:37;8.40;99.90
21625;DHT22;10974;51.034;3.744;2022-11-20T19:48:03;8.30;99.90
21625;DHT22;10974;51.034;3.744;2022-11-20T19:50:30;8.20;99.90
21625;DHT22;10974;51.034;3.744;2022-11-20T19:52:56;8.20;99.90
21625;DHT22;10974;51.034;3.744;2022-11-20T19:55:21;8.20;99.90
21625;DHT22;10974;51.034;3.744;2022-11-20T19:57:47;8.20;99.90
21625;DHT22;10974;51.034;3.744;2022-11-20T20:00:13;8.20;99.90
21625;DHT22;10974;51.034;3.744;2022-11-20T20:02:38;8.30;99.90
21625;DHT22;10974;51.034;3.744;2022-11-20T20:05:04;8.10;99.90
21625;DHT22;10974;51.034;3.744;2022-11-20T20:07:30;8.10;99.90
21625;DHT22;10974;51.034;3.744;2022-11-20T20:09:56;8.00;99.90
21625;DHT22;10974;51.034;3.744;2022-11-20T20:12:21;8.10;99.90
21625;DHT22;10974;51.034;3.744;2022-11-20T20:14:47;8.20;99.90
21625;DHT22;10974;51.034;3.744;2022-11-20T20:17:12;8.10;99.90
21625;DHT22;10974;51.034;3.744;2022-11-20T20:19:38;8.10;99.90
21625;DHT22;10974;51.034;3.744;2022-11-20T20:22:04;8.00;99.90
21625;DHT22;10974;51.034;3.744;2022-11-20T20:24:29;8.00;99.90
21625;DHT22;10974;51.034;3.744;2022-11-20T20:26:55;8.00;99.90
21625;DHT22;10974;51.034;3.744;2022-11-20T20:29:21;8.10;99.90
21625;DHT22;10974;51.034;3.744;2022-11-20T20:31:47;8.10;99.90
21625;DHT22;10974;51.034;3.744;2022-11-20T20:34:12;8.10;99.90
21625;DHT22;10974;51.034;3.744;2022-11-20T20:36:38;8.00;99.90
21625;DHT22;10974;51.034;3.744;2022-11-20T20:39:04;8.10;99.90
21625;DHT22;10974;51.034;3.744;2022-11-20T20:41:30;8.10;99.90
21625;DHT22;10974;51.034;3.744;2022-11-20T20:43:55;8.10;99.90
21625;DHT22;10974;51.034;3.744;2022-11-20T20:46:40;8.20;99.90
21625;DHT22;10974;51.034;3.744;2022-11-20T20:49:06;8.20;99.90
21625;DHT22;10974;51.034;3.744;2022-11-20T20:51:32;8.20;99.90
21625;DHT22;10974;51.034;3.744;2022-11-20T20:53:58;8.00;99.90
21625;DHT22;10974;51.034;3.744;2022-11-20T20:56:24;8.10;99.90
21625;DHT22;10974;51.034;3.744;2022-11-20T20:58:50;8.10;99.90
21625;DHT22;10974;51.034;3.744;2022-11-20T21:01:17;8.20;99.90
21625;DHT22;10974;51.034;3.744;2022-11-20T21:03:43;8.20;99.90
21625;DHT22;10974;51.034;3.744;2022-11-20T21:06:09;8.20;99.90
21625;DHT22;10974;51.034;3.744;2022-11-20T21:08:36;8.20;99.90
21625;DHT22;10974;51.034;3.744;2022-11-20T21:11:10;8.20;99.90
21625;DHT22;10974;51.034;3.744;2022-11-20T21:13:37;8.30;99.90
21625;DHT22;10974;51.034;3.744;2022-11-20T21:16:03;8.30;99.90
21625;DHT22;10974;51.034;3.744;2022-11-20T21:18:30;8.30;99.90
21625;DHT22;10974;51.034;3.744;2022-11-20T21:20:55;8.20;99.90
21625;DHT22;10974;51.034;3.744;2022-11-20T21:23:40;8.30;99.90
21625;DHT22;10974;51.034;3.744;2022-11-20T21:26:08;8.40;99.90
21625;DHT22;10974;51.034;3.744;2022-11-20T21:28:36;8.30;99.90
21625;DHT22;10974;51.034;3.744;2022-11-20T21:33:39;8.40;99.90
21625;DHT22;10974;51.034;3.744;2022-11-20T21:36:06;8.40;99.90
21625;DHT22;10974;51.034;3.744;2022-11-20T21:38:32;8.40;99.90
21625;DHT22;10974;51.034;3.744;2022-11-20T21:40:59;8.30;99.90
21625;DHT22;10974;51.034;3.744;2022-11-20T21:43:25;8.40;99.90
21625;DHT22;10974;51.034;3.744;2022-11-20T21:45:50;8.30;99.90
21625;DHT22;10974;51.034;3.744;2022-11-20T21:48:17;8.40;99.90
21625;DHT22;10974;51.034;3.744;2022-11-20T21:50:43;8.40;99.90